Time;durP1;ratioP1;P1;durP2;ratioP2;P2;SDS_P1;SDS_P2;PMS_P1;PMS_P2;Temp;Humidity;BMP_temperature;BMP_pressure;BME280_temperature;BME280_humidity;BME280_pressure;Samples;Min_cycle;Max_cycle;Signal;HPM_P1;HPM_P2
2023/07/07 00:00:13;;;;;;;2.75;1.05;;;12.60;99.90;;;;;;6215388;23;20021;-85
2023/07/07 00:02:38;;;;;;;2.55;1.10;;;12.60;99.90;;;;;;6215421;23;20092;-83
2023/07/07 00:05:05;;;;;;;3.05;1.17;;;12.70;99.90;;;;;;6214715;23;20403;-83
2023/07/07 00:07:31;;;;;;;2.05;1.10;;;12.60;99.90;;;;;;6215475;23;20040;-84
2023/07/07 00:09:57;;;;;;;1.48;0.98;;;12.60;99.90;;;;;;6215711;23;20024;-83
2023/07/07 00:12:23;;;;;;;3.10;1.05;;;12.50;99.90;;;;;;6215048;23;20020;-83
2023/07/07 00:14:49;;;;;;;3.30;1.10;;;12.50;99.90;;;;;;6214799;23;20025;-84
2023/07/07 00:17:16;;;;;;;1.10;0.75;;;12.50;99.90;;;;;;6213590;23;20028;-83
2023/07/07 00:19:42;;;;;;;2.35;0.90;;;12.50;99.90;;;;;;6215209;23;20028;-83
2023/07/07 00:22:08;;;;;;;1.83;1.02;;;12.40;99.90;;;;;;6215298;23;20096;-84
2023/07/07 00:24:35;;;;;;;3.33;1.05;;;12.40;99.90;;;;;;6215528;23;20118;-85
2023/07/07 00:27:01;;;;;;;3.50;1.38;;;12.40;99.90;;;;;;6215193;23;20013;-84
2023/07/07 00:29:26;;;;;;;2.13;1.45;;;12.30;99.90;;;;;;6214554;23;20021;-84
2023/07/07 00:31:52;;;;;;;2.08;1.20;;;12.30;99.90;;;;;;6214582;23;20154;-84
2023/07/07 00:34:18;;;;;;;2.50;1.00;;;12.30;99.90;;;;;;6187823;23;20083;-85
2023/07/07 00:36:44;;;;;;;1.58;0.93;;;12.30;99.90;;;;;;6216153;23;20031;-83
2023/07/07 00:39:10;;;;;;;3.15;1.58;;;12.30;99.90;;;;;;6216252;23;20486;-85
2023/07/07 00:41:36;;;;;;;2.05;1.38;;;12.50;99.90;;;;;;6190223;23;20035;-83
2023/07/07 00:44:08;;;;;;;3.42;1.25;;;12.20;99.90;;;;;;6216850;23;20429;-83
2023/07/07 00:46:35;;;;;;;2.60;1.10;;;12.20;99.90;;;;;;6217085;23;20056;-84
2023/07/07 00:49:04;;;;;;;3.47;1.35;;;12.10;99.90;;;;;;6214826;23;20021;-83
2023/07/07 00:51:36;;;;;;;2.10;1.20;;;12.10;99.90;;;;;;6216688;23;20044;-82
2023/07/07 00:54:06;;;;;;;2.33;1.33;;;12.10;99.90;;;;;;6216699;23;20074;-82
2023/07/07 00:56:38;;;;;;;3.17;1.50;;;12.10;99.90;;;;;;6216188;23;20455;-83
2023/07/07 00:59:09;;;;;;;3.47;1.45;;;12.00;99.90;;;;;;6216993;23;20348;-83
2023/07/07 01:01:36;;;;;;;4.63;1.40;;;11.90;99.90;;;;;;6216740;23;20114;-83
2023/07/07 01:04:06;;;;;;;2.25;1.35;;;12.00;99.90;;;;;;6216759;23;20023;-83
2023/07/07 01:06:36;;;;;;;2.92;1.15;;;11.90;99.90;;;;;;6216649;23;20025;-84
2023/07/07 01:09:06;;;;;;;2.35;1.17;;;11.90;99.90;;;;;;6215985;23;20012;-83
2023/07/07 01:11:32;;;;;;;2.05;1.45;;;11.90;99.90;;;;;;6216191;23;20120;-83
2023/07/07 01:14:00;;;;;;;2.25;1.40;;;11.80;99.90;;;;;;6189746;23;20020;-82
2023/07/07 01:16:36;;;;;;;2.70;1.38;;;11.90;99.90;;;;;;6215181;23;20017;-83
2023/07/07 01:19:05;;;;;;;2.08;1.10;;;12.40;99.90;;;;;;6216960;23;20020;-85
2023/07/07 01:21:59;;;;;;;2.78;1.45;;;11.80;99.90;;;;;;6216073;23;20020;-82
2023/07/07 01:25:03;;;;;;;3.00;1.50;;;11.70;99.90;;;;;;6216412;23;20347;-82
2023/07/07 01:27:32;;;;;;;4.10;1.40;;;11.90;99.90;;;;;;6214961;23;20025;-83
2023/07/07 01:30:32;;;;;;;4.63;1.88;;;11.80;99.90;;;;;;6216067;23;20031;-83
2023/07/07 01:33:01;;;;;;;3.13;1.38;;;11.80;99.90;;;;;;6189763;23;20028;-83
2023/07/07 01:35:27;;;;;;;4.22;1.55;;;11.70;99.90;;;;;;6216214;23;20017;-84
2023/07/07 01:37:55;;;;;;;1.35;1.02;;;11.70;99.90;;;;;;6216033;23;20526;-83
2023/07/07 01:40:26;;;;;;;3.08;1.58;;;11.70;99.90;;;;;;6216084;23;20079;-83
2023/07/07 01:43:00;;;;;;;2.92;1.40;;;11.70;99.90;;;;;;6216019;23;20021;-82
2023/07/07 01:45:42;;;;;;;3.05;1.73;;;11.70;99.90;;;;;;6216733;23;20032;-84
2023/07/07 01:48:27;;;;;;;4.10;1.90;;;11.60;99.90;;;;;;6216033;23;20343;-84
2023/07/07 01:50:54;;;;;;;2.78;1.58;;;11.60;99.90;;;;;;6188943;23;20491;-82
2023/07/07 01:53:24;;;;;;;3.72;1.45;;;11.60;99.90;;;;;;6216001;23;20028;-84
2023/07/07 01:55:55;;;;;;;1.92;1.30;;;11.60;99.90;;;;;;6216012;23;20017;-84
2023/07/07 01:58:22;;;;;;;2.95;1.70;;;11.60;99.90;;;;;;6215232;23;20440;-83
2023/07/07 02:00:51;;;;;;;3.03;1.95;;;11.50;99.90;;;;;;6215572;23;20087;-82
2023/07/07 02:03:18;;;;;;;3.53;1.88;;;11.50;99.90;;;;;;6189234;23;20359;-83
2023/07/07 02:05:45;;;;;;;3.00;1.67;;;11.50;99.90;;;;;;6216427;23;20523;-83
2023/07/07 02:08:10;;;;;;;2.92;1.50;;;11.50;99.90;;;;;;6215733;23;20028;-84
2023/07/07 02:10:36;;;;;;;3.45;1.90;;;11.50;99.90;;;;;;6215662;23;20013;-83
2023/07/07 02:13:02;;;;;;;5.65;1.80;;;11.50;99.90;;;;;;6188606;23;20017;-84
2023/07/07 02:15:28;;;;;;;3.25;1.65;;;11.40;99.90;;;;;;6188932;23;20051;-83
2023/07/07 02:17:53;;;;;;;6.53;1.80;;;11.40;99.90;;;;;;6164148;23;20025;-84
2023/07/07 02:20:19;;;;;;;5.05;1.88;;;11.40;99.90;;;;;;6189186;23;20031;-82
2023/07/07 02:22:46;;;;;;;2.95;1.42;;;11.40;99.90;;;;;;6215489;23;20021;-83
2023/07/07 02:25:12;;;;;;;2.88;1.48;;;11.30;99.90;;;;;;6189289;23;20024;-85
2023/07/07 02:27:38;;;;;;;2.65;1.48;;;11.30;99.90;;;;;;6189270;23;20013;-82
2023/07/07 02:30:04;;;;;;;2.25;1.40;;;11.30;99.90;;;;;;6215696;23;20025;-81
2023/07/07 02:32:30;;;;;;;5.10;1.73;;;11.30;99.90;;;;;;6215808;23;20031;-83
2023/07/07 02:34:58;;;;;;;3.42;1.58;;;11.40;99.90;;;;;;6215122;23;20056;-85
2023/07/07 02:37:24;;;;;;;4.75;1.65;;;11.20;99.90;;;;;;6215869;23;20070;-83
2023/07/07 02:39:50;;;;;;;3.17;1.75;;;11.20;99.90;;;;;;6188772;23;20021;-82
2023/07/07 02:42:16;;;;;;;3.33;1.77;;;11.20;99.90;;;;;;6189083;23;20024;-83
2023/07/07 02:44:42;;;;;;;2.47;1.48;;;11.60;99.90;;;;;;6215369;23;20109;-82
2023/07/07 02:47:08;;;;;;;3.88;1.80;;;11.20;99.90;;;;;;6188751;23;20414;-82
2023/07/07 02:49:35;;;;;;;4.70;1.60;;;11.20;99.90;;;;;;6215434;23;20096;-84
2023/07/07 02:52:00;;;;;;;3.95;1.92;;;11.10;99.90;;;;;;6215393;23;20020;-82
2023/07/07 02:54:26;;;;;;;4.45;1.60;;;11.10;99.90;;;;;;6189309;23;20403;-82
2023/07/07 02:56:53;;;;;;;2.80;1.88;;;11.10;99.90;;;;;;6215673;23;20067;-82
2023/07/07 02:59:19;;;;;;;3.42;1.60;;;11.10;99.90;;;;;;6214792;23;20471;-82
2023/07/07 03:01:45;;;;;;;3.30;1.67;;;11.00;99.90;;;;;;6215368;23;20020;-82
2023/07/07 03:04:11;;;;;;;2.95;1.77;;;11.00;99.90;;;;;;6215215;23;20023;-84
2023/07/07 03:06:37;;;;;;;4.13;1.70;;;11.00;99.90;;;;;;6188389;23;20048;-82
2023/07/07 03:09:03;;;;;;;3.20;1.65;;;11.30;99.90;;;;;;6215330;23;20355;-83
2023/07/07 03:11:29;;;;;;;4.20;1.77;;;11.70;99.90;;;;;;6215937;23;20016;-82
2023/07/07 03:13:55;;;;;;;3.35;1.90;;;11.00;99.90;;;;;;6189017;23;20024;-83
2023/07/07 03:16:30;;;;;;;4.78;2.42;;;11.00;99.90;;;;;;6215621;23;20020;-83
2023/07/07 03:18:58;;;;;;;2.70;1.67;;;11.00;99.90;;;;;;6215280;23;20115;-82
2023/07/07 03:21:25;;;;;;;2.70;1.38;;;11.00;99.90;;;;;;6215421;23;20040;-82
2023/07/07 03:23:52;;;;;;;2.50;1.48;;;11.10;99.90;;;;;;6215563;23;20017;-82
2023/07/07 03:26:19;;;;;;;2.97;1.75;;;11.00;99.90;;;;;;6189185;23;20025;-82
2023/07/07 03:28:45;;;;;;;2.60;1.63;;;11.50;99.90;;;;;;6214924;23;20530;-83
2023/07/07 03:31:29;;;;;;;2.40;1.60;;;11.00;99.90;;;;;;6215126;23;20467;-84
2023/07/07 03:33:57;;;;;;;4.13;1.90;;;11.00;99.90;;;;;;6215113;23;20104;-82
2023/07/07 03:36:26;;;;;;;4.93;1.60;;;11.00;99.90;;;;;;6215315;23;20103;-83
2023/07/07 03:38:52;;;;;;;3.70;1.73;;;11.00;99.90;;;;;;6215282;23;20017;-83
2023/07/07 03:41:23;;;;;;;2.67;1.77;;;11.00;99.90;;;;;;6215663;23;20455;-82
2023/07/07 03:43:49;;;;;;;3.95;2.13;;;11.40;99.90;;;;;;6215178;23;20436;-83
2023/07/07 03:46:19;;;;;;;4.90;2.00;;;11.10;99.90;;;;;;6215460;23;20020;-83
2023/07/07 03:48:46;;;;;;;3.30;1.80;;;11.10;99.90;;;;;;6215011;23;20074;-83
2023/07/07 03:51:28;;;;;;;3.72;1.90;;;11.10;99.90;;;;;;6215384;23;20031;-83
2023/07/07 03:53:54;;;;;;;3.22;1.90;;;11.10;99.90;;;;;;6188334;23;20028;-83
2023/07/07 03:56:20;;;;;;;3.25;1.63;;;11.10;99.90;;;;;;6215460;23;20356;-85
2023/07/07 03:58:47;;;;;;;4.07;1.80;;;11.20;99.90;;;;;;6188746;23;20025;-83
2023/07/07 04:01:13;;;;;;;3.75;1.90;;;11.20;99.90;;;;;;6188640;23;20017;-84
2023/07/07 04:03:40;;;;;;;3.47;1.73;;;11.30;99.90;;;;;;6214471;23;20025;-83
2023/07/07 04:06:06;;;;;;;3.10;1.60;;;11.30;99.90;;;;;;6215142;23;20020;-84
2023/07/07 04:08:33;;;;;;;3.75;1.80;;;11.40;99.90;;;;;;6215600;23;20028;-83
2023/07/07 04:11:02;;;;;;;4.45;1.92;;;11.40;99.90;;;;;;6216685;23;20028;-86
2023/07/07 04:13:29;;;;;;;2.95;1.63;;;11.40;99.90;;;;;;6216449;23;20028;-85
2023/07/07 04:16:05;;;;;;;3.67;2.05;;;11.50;99.90;;;;;;6217001;23;20020;-85
2023/07/07 04:18:32;;;;;;;5.15;2.55;;;11.50;99.90;;;;;;6190818;23;20021;-84
2023/07/07 04:21:05;;;;;;;3.22;2.22;;;11.70;99.90;;;;;;6217314;23;20339;-82
2023/07/07 04:23:32;;;;;;;4.30;2.25;;;11.30;99.90;;;;;;6190330;23;20028;-83
2023/07/07 04:25:57;;;;;;;5.90;2.22;;;11.70;99.90;;;;;;6190470;23;20343;-83
2023/07/07 04:28:24;;;;;;;3.33;2.03;;;11.80;99.90;;;;;;6190072;23;20031;-82
2023/07/07 04:30:51;;;;;;;3.17;2.20;;;11.80;99.90;;;;;;6216613;23;20036;-85
2023/07/07 04:33:17;;;;;;;4.05;2.13;;;11.90;99.90;;;;;;6217125;23;20396;-82
2023/07/07 04:35:42;;;;;;;3.13;2.15;;;12.00;99.90;;;;;;6216054;23;20060;-83
2023/07/07 04:38:08;;;;;;;4.60;2.85;;;12.10;99.90;;;;;;6216944;23;20025;-83
2023/07/07 04:40:34;;;;;;;5.03;2.30;;;12.20;99.90;;;;;;6190198;23;20058;-83
2023/07/07 04:43:00;;;;;;;4.15;2.50;;;12.20;99.90;;;;;;6216610;23;20021;-84
2023/07/07 04:45:25;;;;;;;4.18;2.38;;;12.30;99.90;;;;;;6216300;23;20032;-82
2023/07/07 04:47:51;;;;;;;4.32;2.20;;;12.40;99.90;;;;;;6189844;23;20021;-83
2023/07/07 04:50:17;;;;;;;3.53;2.42;;;12.30;99.90;;;;;;6217101;23;20021;-82
2023/07/07 04:52:42;;;;;;;4.53;2.35;;;12.60;99.90;;;;;;6216756;23;20088;-82
2023/07/07 04:55:09;;;;;;;3.70;2.22;;;12.70;99.90;;;;;;6216424;23;20025;-82
2023/07/07 04:57:35;;;;;;;3.95;2.17;;;12.90;99.90;;;;;;6216514;23;20021;-84
2023/07/07 05:00:03;;;;;;;3.22;1.92;;;13.10;99.90;;;;;;6216498;23;20021;-84
2023/07/07 05:02:29;;;;;;;4.15;2.58;;;13.10;99.90;;;;;;6216609;23;20447;-83
2023/07/07 05:04:54;;;;;;;4.50;2.50;;;13.30;99.90;;;;;;6216386;23;20067;-83
2023/07/07 05:07:20;;;;;;;6.47;3.28;;;13.40;99.90;;;;;;6216214;23;20099;-83
2023/07/07 05:09:46;;;;;;;4.72;2.70;;;13.50;99.90;;;;;;6216723;23;20400;-83
2023/07/07 05:12:14;;;;;;;4.78;2.80;;;13.70;99.90;;;;;;6189802;23;20023;-85
2023/07/07 05:14:39;;;;;;;5.97;2.05;;;13.80;99.90;;;;;;6216347;23;20021;-84
2023/07/07 05:17:05;;;;;;;4.60;2.55;;;13.90;99.90;;;;;;6216218;23;20027;-83
2023/07/07 05:19:31;;;;;;;3.88;1.95;;;14.10;99.90;;;;;;6216804;23;20020;-85
2023/07/07 05:21:57;;;;;;;4.47;2.13;;;14.20;99.90;;;;;;6216120;23;20044;-84
2023/07/07 05:24:22;;;;;;;5.65;2.63;;;14.40;99.90;;;;;;6189626;23;20013;-83
2023/07/07 05:26:48;;;;;;;9.73;5.88;;;14.40;99.90;;;;;;6216774;23;20032;-84
2023/07/07 05:29:14;;;;;;;7.00;3.15;;;14.70;99.90;;;;;;6216971;23;20359;-85
2023/07/07 05:31:40;;;;;;;5.15;2.90;;;14.80;99.90;;;;;;6216490;23;20024;-83
2023/07/07 05:34:06;;;;;;;4.90;3.55;;;15.00;99.90;;;;;;6216365;23;20028;-85
2023/07/07 05:36:32;;;;;;;4.80;2.65;;;15.10;99.90;;;;;;6189545;23;20021;-84
2023/07/07 05:38:58;;;;;;;4.75;3.15;;;15.30;99.90;;;;;;6189327;23;20056;-84
2023/07/07 05:41:23;;;;;;;3.15;2.60;;;15.40;99.90;;;;;;6216804;23;20024;-85
2023/07/07 05:43:49;;;;;;;4.18;3.05;;;15.60;99.90;;;;;;6216941;23;20328;-85
2023/07/07 05:46:16;;;;;;;9.63;4.55;;;15.70;99.90;;;;;;6216752;23;20021;-82
2023/07/07 05:48:42;;;;;;;4.10;3.28;;;15.90;99.90;;;;;;6189480;23;20020;-82
2023/07/07 05:51:14;;;;;;;4.90;3.20;;;16.00;99.90;;;;;;6189566;23;20407;-85
2023/07/07 05:53:42;;;;;;;3.90;2.85;;;16.20;99.90;;;;;;6215997;23;20072;-85
2023/07/07 05:56:19;;;;;;;4.22;2.38;;;16.30;99.90;;;;;;6216244;23;20342;-83
2023/07/07 05:58:44;;;;;;;5.43;3.20;;;16.50;99.90;;;;;;6215852;23;20035;-83
2023/07/07 06:01:13;;;;;;;6.53;3.33;;;16.70;99.90;;;;;;6216065;23;20020;-85
2023/07/07 06:03:40;;;;;;;7.65;3.30;;;16.80;99.90;;;;;;6216401;23;20027;-84
2023/07/07 06:06:09;;;;;;;4.65;2.78;;;16.90;99.90;;;;;;6190296;23;20027;-89
2023/07/07 06:08:38;;;;;;;4.50;3.20;;;17.10;99.90;;;;;;6190292;23;20062;-88
2023/07/07 06:11:23;;;;;;;;;;;;;;;;;;;;;
2023/07/07 06:16:46;;;;;;;5.40;3.58;;;17.60;99.90;;;;;;6214031;22;20103;-87
2023/07/07 06:19:12;;;;;;;4.43;2.95;;;17.70;99.90;;;;;;6189661;23;20044;-86
2023/07/07 06:21:37;;;;;;;3.40;2.33;;;17.90;99.90;;;;;;6188892;23;20088;-86
2023/07/07 06:24:06;;;;;;;5.22;2.88;;;18.10;99.90;;;;;;6216074;23;20017;-86
2023/07/07 06:26:32;;;;;;;4.20;2.97;;;18.20;99.90;;;;;;6189336;23;20510;-86
2023/07/07 06:28:57;;;;;;;7.57;2.83;;;18.40;99.90;;;;;;6188726;23;20052;-87
2023/07/07 06:31:23;;;;;;;4.50;2.33;;;18.50;99.90;;;;;;6188403;23;20328;-85
2023/07/07 06:33:49;;;;;;;4.15;1.95;;;18.70;99.90;;;;;;6215181;23;20094;-86
2023/07/07 06:36:15;;;;;;;3.78;2.25;;;18.80;99.90;;;;;;6164102;23;20016;-88
2023/07/07 06:38:41;;;;;;;4.40;3.03;;;18.90;99.90;;;;;;6189003;23;20044;-86
2023/07/07 06:41:12;;;;;;;5.55;2.30;;;19.10;99.90;;;;;;6215806;23;20313;-84
2023/07/07 06:43:37;;;;;;;5.03;2.42;;;19.20;99.90;;;;;;6189211;23;20016;-85
2023/07/07 06:46:03;;;;;;;4.80;2.20;;;19.30;99.90;;;;;;6188570;23;20094;-87
2023/07/07 06:48:29;;;;;;;3.85;2.40;;;19.50;99.90;;;;;;6189341;23;20463;-85
2023/07/07 06:50:54;;;;;;;5.47;2.35;;;19.60;99.90;;;;;;6215609;23;20340;-85
2023/07/07 06:53:20;;;;;;;4.15;1.90;;;19.80;99.90;;;;;;6188217;23;20056;-86
2023/07/07 06:55:46;;;;;;;3.63;1.77;;;19.90;99.90;;;;;;6215758;23;20024;-85
2023/07/07 06:58:13;;;;;;;2.85;1.63;;;20.10;99.90;;;;;;6215547;23;20024;-86
2023/07/07 07:00:40;;;;;;;2.97;2.00;;;20.20;99.90;;;;;;6215763;23;20016;-85
2023/07/07 07:03:06;;;;;;;4.85;1.75;;;20.30;99.90;;;;;;6216053;23;20020;-86
2023/07/07 07:05:31;;;;;;;1.80;1.20;;;20.50;99.90;;;;;;6188172;23;20027;-86
2023/07/07 07:07:57;;;;;;;3.67;1.52;;;20.60;99.90;;;;;;6188077;23;20095;-84
2023/07/07 07:10:23;;;;;;;1.90;1.25;;;20.70;99.90;;;;;;6188587;23;20024;-85
2023/07/07 07:12:49;;;;;;;4.85;1.50;;;20.90;99.90;;;;;;6214782;23;20016;-85
2023/07/07 07:15:14;;;;;;;3.83;1.40;;;21.00;99.90;;;;;;6214726;23;20070;-86
2023/07/07 07:17:40;;;;;;;4.35;1.27;;;21.20;99.90;;;;;;6214529;23;20021;-84
2023/07/07 07:20:10;;;;;;;5.38;1.98;;;21.40;99.90;;;;;;6189465;23;20395;-86
2023/07/07 07:22:36;;;;;;;5.03;1.50;;;21.50;99.90;;;;;;6189085;23;20024;-86
2023/07/07 07:25:02;;;;;;;3.50;1.63;;;21.60;99.90;;;;;;6188502;23;20024;-84
2023/07/07 07:27:28;;;;;;;92.53;59.67;;;21.70;99.90;;;;;;6215613;23;20027;-84
2023/07/07 07:29:54;;;;;;;;;;;21.80;99.90;;;;;;6188941;23;20473;-84
2023/07/07 07:32:19;;;;;;;;;;;22.00;99.90;;;;;;6215527;23;19968;-85
2023/07/07 07:34:45;;;;;;;;;;;22.10;99.90;;;;;;6189184;23;20015;-85
2023/07/07 07:37:10;;;;;;;;;;;22.20;99.90;;;;;;6189123;23;19984;-84
2023/07/07 07:39:36;;;;;;;;;;;22.30;99.90;;;;;;6189176;23;19974;-84
2023/07/07 07:42:02;;;;;;;;;;;22.40;99.90;;;;;;6188552;23;19959;-84
2023/07/07 07:44:29;;;;;;;;;;;22.50;99.90;;;;;;6215357;23;19972;-84
2023/07/07 07:46:55;;;;;;;;;;;22.60;99.90;;;;;;6190710;23;19968;-85
2023/07/07 07:49:22;;;;;;;;;;;22.70;99.90;;;;;;6217737;23;20411;-83
2023/07/07 07:51:47;;;;;;;;;;;22.70;99.90;;;;;;6190421;23;20357;-83
2023/07/07 07:54:13;;;;;;;;;;;23.00;99.90;;;;;;6217331;23;19964;-85
2023/07/07 07:56:39;;;;;;;;;;;22.90;99.90;;;;;;6217630;23;20016;-84
2023/07/07 07:59:05;;;;;;;;;;;22.90;99.90;;;;;;6218167;23;20257;-84
2023/07/07 08:01:31;;;;;;;;;;;23.20;99.90;;;;;;6217520;23;19943;-83
2023/07/07 08:03:56;;;;;;;;;;;23.40;99.90;;;;;;6217849;23;20265;-86
2023/07/07 08:06:22;;;;;;;;;;;23.50;99.90;;;;;;6217773;23;20259;-88
2023/07/07 08:08:48;;;;;;;;;;;23.70;99.90;;;;;;6191577;23;19942;-85
2023/07/07 08:11:16;;;;;;;;;;;23.80;99.90;;;;;;6166132;23;19940;-86
2023/07/07 08:13:42;;;;;;;;;;;23.80;99.90;;;;;;6216848;23;19989;-87
2023/07/07 08:16:11;;;;;;;;;;;23.90;99.90;;;;;;6217364;23;19967;-84
2023/07/07 08:18:37;;;;;;;;;;;24.00;99.50;;;;;;6218031;23;19950;-85
2023/07/07 08:21:03;;;;;;;;;;;24.10;99.80;;;;;;6217760;23;19966;-85
2023/07/07 08:23:29;;;;;;;;;;;24.10;99.60;;;;;;6217178;23;19987;-84
2023/07/07 08:25:54;;;;;;;;;;;24.20;98.70;;;;;;6190953;23;19942;-84
2023/07/07 08:28:20;;;;;;;;;;;24.30;99.50;;;;;;6217551;23;20366;-83
2023/07/07 08:30:46;;;;;;;;;;;24.40;99.90;;;;;;6217873;23;19936;-85
2023/07/07 08:33:12;;;;;;;;;;;24.60;99.90;;;;;;6219913;23;19967;-86
2023/07/07 08:35:38;;;;;;;;;;;24.90;99.60;;;;;;6217755;23;19946;-86
2023/07/07 08:38:03;;;;;;;;;;;24.90;98.50;;;;;;6217934;23;19970;-86
2023/07/07 08:40:35;;;;;;;;;;;24.90;97.00;;;;;;6190754;23;19941;-86
2023/07/07 08:43:01;;;;;;;;;;;25.10;98.00;;;;;;6190513;23;20013;-86
2023/07/07 08:45:27;;;;;;;;;;;25.10;98.00;;;;;;6217209;23;19942;-87
2023/07/07 08:48:07;;;;;;;;;;;25.40;97.80;;;;;;6189784;23;19939;-86
2023/07/07 08:50:49;;;;;;;;;;;25.50;95.70;;;;;;6217616;23;19939;-90
2023/07/07 08:53:17;;;;;;;;;;;25.60;96.40;;;;;;6220453;23;19944;-88
2023/07/07 08:56:01;;;;;;;;;;;25.70;95.80;;;;;;6217173;23;19937;-89
2023/07/07 08:58:45;;;;;;;;;;;25.90;95.90;;;;;;6217219;23;19941;-87
2023/07/07 09:01:29;;;;;;;;;;;26.00;94.80;;;;;;6190106;23;19934;-88
2023/07/07 09:04:13;;;;;;;;;;;26.10;96.00;;;;;;6216983;23;19948;-89
2023/07/07 09:07:01;;;;;;;;;;;26.30;96.00;;;;;;6189897;23;20367;-87
2023/07/07 09:09:37;;;;;;;;;;;26.40;96.20;;;;;;6190406;23;19938;-87
2023/07/07 09:12:24;;;;;;;;;;;26.50;92.70;;;;;;6190427;23;19932;-87
2023/07/07 09:14:51;;;;;;;;;;;26.60;93.80;;;;;;6189670;23;19936;-86
2023/07/07 09:17:23;;;;;;;;;;;26.40;90.90;;;;;;6216206;23;19962;-87
2023/07/07 09:19:51;;;;;;;;;;;26.50;92.70;;;;;;6190138;23;19944;-88
2023/07/07 09:22:24;;;;;;;;;;;26.70;92.90;;;;;;6189797;23;19944;-89
2023/07/07 09:24:55;;;;;;;;;;;26.80;93.60;;;;;;6190320;23;19938;-88
2023/07/07 09:27:27;;;;;;;;;;;27.00;92.90;;;;;;6190042;23;19936;-88
2023/07/07 09:29:57;;;;;;;;;;;26.70;89.20;;;;;;6216445;23;19936;-87
2023/07/07 09:32:26;;;;;;;;;;;26.70;91.80;;;;;;6189887;23;19935;-89
2023/07/07 09:34:54;;;;;;;;;;;26.70;90.90;;;;;;6217054;23;19937;-87
2023/07/07 09:37:44;;;;;;;;;;;26.80;90.30;;;;;;6222435;23;19962;-88
2023/07/07 09:40:10;;;;;;;;;;;26.80;90.00;;;;;;6189592;23;20364;-86
2023/07/07 09:42:56;;;;;;;;;;;26.70;90.50;;;;;;6191376;23;19946;-87
2023/07/07 09:45:38;;;;;;;;;;;26.80;92.30;;;;;;6216216;23;20250;-87
2023/07/07 09:48:12;;;;;;;;;;;27.10;91.80;;;;;;6216621;23;20014;-87
2023/07/07 09:50:38;;;;;;;;;;;27.40;90.10;;;;;;6190069;23;19939;-88
2023/07/07 09:53:11;;;;;;;;;;;27.50;91.80;;;;;;6190133;23;20013;-88
2023/07/07 09:55:37;;;;;;;;;;;27.60;91.70;;;;;;6164864;23;19980;-86
2023/07/07 09:58:09;;;;;;;;;;;27.60;88.70;;;;;;6164342;23;19937;-86
2023/07/07 10:00:35;;;;;;;;;;;27.50;86.20;;;;;;6216567;23;19982;-86
2023/07/07 10:03:04;;;;;;;2.50;0.60;;;27.70;89.40;;;;;;6163325;23;20409;-88
2023/07/07 10:05:34;;;;;;;1.23;0.60;;;27.80;90.40;;;;;;6164191;23;20024;-86
2023/07/07 10:08:05;;;;;;;2.85;1.00;;;27.70;90.60;;;;;;6164403;23;20055;-85
2023/07/07 10:10:32;;;;;;;3.05;0.70;;;27.90;91.00;;;;;;6189130;23;20021;-85
2023/07/07 10:13:00;;;;;;;1.17;0.63;;;28.00;91.60;;;;;;6189096;23;20024;-88
2023/07/07 10:15:42;;;;;;;1.10;0.60;;;28.10;90.00;;;;;;6215568;23;20028;-85
2023/07/07 10:18:37;;;;;;;1.85;0.68;;;28.20;91.30;;;;;;6189397;23;20036;-84
2023/07/07 10:21:09;;;;;;;1.15;0.45;;;28.50;90.00;;;;;;6212191;23;20095;-86
2023/07/07 10:23:39;;;;;;;0.98;0.60;;;28.40;86.10;;;;;;6189308;23;20024;-84
2023/07/07 10:26:04;;;;;;;2.28;0.57;;;28.50;90.40;;;;;;6164736;23;20016;-92
2023/07/07 10:28:33;;;;;;;1.63;0.70;;;28.50;88.70;;;;;;6189772;23;20063;-92
2023/07/07 10:31:00;;;;;;;1.00;0.50;;;28.60;88.20;;;;;;6190357;23;20099;-89
2023/07/07 10:33:29;;;;;;;2.30;0.70;;;28.60;89.40;;;;;;6216166;23;20017;-92
2023/07/07 10:43:19;;;;;;;1.10;0.60;;;28.80;86.90;;;;;;6216778;23;20016;-91
2023/07/07 10:45:48;;;;;;;1.30;0.60;;;28.90;90.40;;;;;;6192146;23;20036;-90
2023/07/07 10:48:16;;;;;;;2.22;0.68;;;29.20;90.40;;;;;;6192397;23;20017;-92
2023/07/07 10:51:13;;;;;;;812.75;729.15;;;29.30;87.70;;;;;;6192920;23;20447;-91
2023/07/07 10:54:01;;;;;;;1.77;0.70;;;29.30;88.20;;;;;;6189087;23;20056;-87
2023/07/07 10:56:43;;;;;;;3.13;0.70;;;29.30;86.50;;;;;;6216688;23;20027;-90
2023/07/07 10:59:39;;;;;;;1008.33;632.90;;;29.30;86.60;;;;;;6192523;23;20087;-88
2023/07/07 11:02:23;;;;;;;1129.10;685.27;;;29.30;86.50;;;;;;6190726;23;20016;-86
2023/07/07 11:05:31;;;;;;;1129.28;768.83;;;29.30;86.30;;;;;;6215356;23;20031;-84
2023/07/07 11:08:20;;;;;;;999.72;798.33;;;29.30;84.10;;;;;;6189475;23;20025;-87
2023/07/07 11:11:17;;;;;;;1254.97;931.78;;;29.10;84.80;;;;;;6216460;23;20355;-84
2023/07/07 11:14:09;;;;;;;1236.95;908.97;;;29.20;85.70;;;;;;6215848;23;20056;-83
2023/07/07 11:16:47;;;;;;;2.78;0.73;;;29.40;85.50;;;;;;6215693;23;20406;-82
2023/07/07 11:19:42;;;;;;;2.38;0.60;;;29.30;81.60;;;;;;6215686;23;20028;-83
2023/07/07 11:22:26;;;;;;;20.98;19.13;;;29.20;84.70;;;;;;6216124;23;20020;-85
2023/07/07 11:25:16;;;;;;;1.33;0.70;;;29.50;83.50;;;;;;6188747;23;20399;-82
2023/07/07 11:28:04;;;;;;;1252.78;912.72;;;29.50;79.40;;;;;;6189254;23;20328;-85
2023/07/07 11:30:44;;;;;;;1275.00;753.22;;;29.30;82.90;;;;;;6216152;23;20021;-83
2023/07/07 11:33:43;;;;;;;1269.45;911.00;;;29.60;83.20;;;;;;6217789;23;20021;-83
2023/07/07 11:36:21;;;;;;;1309.70;756.83;;;29.40;77.20;;;;;;6189485;23;20044;-84
2023/07/07 11:39:12;;;;;;;1277.93;917.85;;;29.50;82.20;;;;;;6216168;23;20021;-84
2023/07/07 11:41:51;;;;;;;1283.78;757.67;;;29.80;82.30;;;;;;6215384;23;20056;-86
2023/07/07 11:44:48;;;;;;;1288.90;772.55;;;30.00;84.00;;;;;;6163560;23;20025;-86
2023/07/07 11:47:35;;;;;;;1305.65;939.38;;;30.20;82.60;;;;;;6164109;23;20463;-86
2023/07/07 11:50:24;;;;;;;1321.95;758.40;;;29.80;84.50;;;;;;6163473;23;20063;-86
2023/07/07 11:53:20;;;;;;;1281.18;930.33;;;29.90;80.40;;;;;;6214883;23;20451;-89
2023/07/07 11:56:16;;;;;;;1289.68;942.15;;;30.00;83.00;;;;;;6189085;23;20063;-87
2023/07/07 11:59:17;;;;;;;1300.20;792.58;;;29.80;77.70;;;;;;6188069;23;20025;-86
2023/07/07 12:01:49;;;;;;;1313.03;784.78;;;30.10;80.20;;;;;;6127563;23;20445;-86
2023/07/07 12:04:23;;;;;;;1325.50;966.15;;;30.20;82.10;;;;;;6128087;23;20374;-86
2023/07/07 12:06:58;;;;;;;1347.63;799.33;;;30.40;82.60;;;;;;6127732;23;20038;-86
2023/07/07 12:09:48;;;;;;;1311.32;972.10;;;30.60;81.30;;;;;;6128026;23;20033;-86
2023/07/07 12:12:38;;;;;;;1313.00;792.53;;;30.70;78.60;;;;;;6153246;23;20025;-83
2023/07/07 12:15:19;;;;;;;1324.72;979.75;;;30.50;79.00;;;;;;6153462;23;20021;-84
2023/07/07 12:17:50;;;;;;;1323.60;800.00;;;30.30;79.40;;;;;;6152239;23;20025;-84
2023/07/07 12:20:22;;;;;;;1317.20;972.63;;;30.00;80.80;;;;;;6128117;23;20028;-84
2023/07/07 12:22:48;;;;;;;1338.05;984.47;;;30.00;82.10;;;;;;6152599;23;20039;-82
2023/07/07 12:25:23;;;;;;;1333.63;972.08;;;30.00;80.70;;;;;;6128061;23;20025;-86
2023/07/07 12:27:51;;;;;;;1342.72;815.58;;;29.80;79.00;;;;;;6152800;23;20039;-89
2023/07/07 12:30:32;;;;;;;1316.13;973.25;;;30.10;82.20;;;;;;6104267;23;20021;-87
2023/07/07 12:33:51;;;;;;;;;;;;;;;;;;;;;
2023/07/07 12:36:26;;;;;;;1348.80;818.30;;;30.30;79.80;;;;;;6125946;23;20457;-87
2023/07/07 12:38:56;;;;;;;1310.50;987.17;;;30.40;84.00;;;;;;6209706;23;20021;-85
2023/07/07 12:41:26;;;;;;;1302.60;978.08;;;30.40;81.40;;;;;;6168018;23;20048;-87
2023/07/07 12:44:18;;;;;;;1310.00;987.63;;;30.60;80.10;;;;;;6219465;23;20031;-87
2023/07/07 12:46:49;;;;;;;1288.97;999.90;;;31.00;79.40;;;;;;6219109;23;20028;-87
2023/07/07 12:49:36;;;;;;;1293.78;831.58;;;31.10;77.30;;;;;;6219423;23;20323;-88
2023/07/07 12:52:09;;;;;;;1305.63;832.40;;;30.90;74.80;;;;;;6219922;23;20364;-86
2023/07/07 12:54:36;;;;;;;1305.20;832.53;;;30.80;73.50;;;;;;6192357;23;20020;-87
2023/07/07 12:57:18;;;;;;;1316.13;991.35;;;30.90;75.40;;;;;;6219244;23;20024;-86
2023/07/07 12:59:52;;;;;;;1287.68;929.20;;;31.20;77.50;;;;;;6203322;23;20052;-86
2023/07/07 13:02:27;;;;;;;1319.85;833.08;;;31.40;75.40;;;;;;6232986;23;20024;-87
2023/07/07 13:05:22;;;;;;;1.45;0.70;;;31.60;73.60;;;;;;6233841;23;20028;-88
2023/07/07 13:08:01;;;;;;;2.03;0.70;;;31.60;74.40;;;;;;6205747;23;20024;-86
2023/07/07 13:10:55;;;;;;;;;;;;;;;;;;;;;
2023/07/07 13:13:26;;;;;;;1.95;0.82;;;31.60;77.80;;;;;;6200970;23;20060;-87
2023/07/07 13:15:54;;;;;;;1.90;0.50;;;31.40;73.20;;;;;;6176181;23;20028;-86
2023/07/07 13:18:20;;;;;;;2.42;0.70;;;31.10;74.60;;;;;;6202550;23;20031;-86
2023/07/07 13:20:52;;;;;;;1.00;0.52;;;31.10;74.80;;;;;;6202165;23;20356;-86
2023/07/07 13:23:48;;;;;;;2.03;1.17;;;31.10;74.60;;;;;;6202164;23;20072;-86
2023/07/07 13:26:42;;;;;;;1.63;0.70;;;31.10;74.80;;;;;;6088005;23;20034;-85
2023/07/07 13:29:08;;;;;;;1.65;0.70;;;30.90;74.40;;;;;;6085338;23;20169;-84
2023/07/07 13:31:41;;;;;;;2.17;0.70;;;30.70;73.60;;;;;;6103957;23;20023;-86